PWSweather.com
Personal Weather Stations
Station Observations
MDHALE1
Southwest Baltimore Co., Halethorpe, MD 21227

Southwest Baltimore Co.Halethorpe, MD 21227

Lat: 39.23643, Lon: -76.696959

Elevation: 86

Station Type: Davis Vantage Pro2+

http://home.comcast.net/~halethorpe_weather/index.html

Latest ConditionsUpdated 4:45:01 PM EDT Sunday, Apr 26, 2015
Currently Today's Max Today's Min Today's Average
Temperature 64.8°F18.2°C 65.3°F18.5°C 41.3°F5.2°C 50.9°F10.5°C
Dew Point 29.1°F-1.6°C 39.0°F3.9°C 27.0°F-2.8°C 34.1°F1.2°C
Winds 2.3 mph N3.7 kmh N 11.5 mph N18.5 kmh N - 2.5 mph 4.0 kmh
Wind Gusts 3.5 mph5.6 kmh 16.1 mph25.9 kmh - -
Humidity 26% 89% 24% 60%
Pressure 29.66 in1004.4 mb 29.71 in1006.1 mb 29.66 in1004.4 mb -
Hour Temp Dew Point Humidity Winds Wind Gusts Pressure Precip Precip Rate Daily Precip Total
04:45 PM 64.8°F18.2°C 29.1°F-1.6°C 26% 2.3 mph N3.7 kmh N 3.5 mph5.6 kmh 29.66 in1004.4 mb - 0.00 in0.0 mm 0.00 in0.0 mm
04:30 PM 65.3°F18.5°C 27.5°F-2.5°C 24% 3.5 mph NE5.6 kmh NE 6.9 mph11.1 kmh 29.66 in1004.4 mb - 0.00 in0.0 mm 0.00 in0.0 mm
04:15 PM 65.2°F18.4°C 28.5°F-1.9°C 25% 5.8 mph N9.3 kmh N 10.4 mph16.7 kmh 29.66 in1004.4 mb - 0.00 in0.0 mm 0.00 in0.0 mm
04:00 PM 64.7°F18.2°C 27.0°F-2.8°C 24% 3.5 mph NE5.6 kmh NE 5.8 mph9.3 kmh 29.66 in1004.4 mb - 0.00 in0.0 mm 0.00 in0.0 mm
03:45 PM 63.3°F17.4°C 28.7°F-1.8°C 27% 4.6 mph NNE7.4 kmh NNE 4.6 mph7.4 kmh 29.66 in1004.4 mb - 0.00 in0.0 mm 0.00 in0.0 mm
03:30 PM 63.7°F17.6°C 28.2°F-2.1°C 26% 1.2 mph N1.9 kmh N 2.3 mph3.7 kmh 29.66 in1004.4 mb - 0.00 in0.0 mm 0.00 in0.0 mm
03:15 PM 63.9°F17.7°C 30.1°F-1.1°C 28% 3.5 mph NNW5.6 kmh NNW 6.9 mph11.1 kmh 29.66 in1004.4 mb - 0.00 in0.0 mm 0.00 in0.0 mm
03:00 PM 64.9°F18.3°C 30.1°F-1.1°C 27% 3.5 mph NE5.6 kmh NE 6.9 mph11.1 kmh 29.66 in1004.4 mb - 0.00 in0.0 mm 0.00 in0.0 mm
02:45 PM 64.5°F18.1°C 28.8°F-1.8°C 26% 8.1 mph NW13.0 kmh NW 13.8 mph22.2 kmh 29.66 in1004.4 mb - 0.00 in0.0 mm 0.00 in0.0 mm
02:30 PM 64.8°F18.2°C 30.0°F-1.1°C 27% 1.2 mph NE1.9 kmh NE 11.5 mph18.5 kmh 29.67 in1004.7 mb - 0.00 in0.0 mm 0.00 in0.0 mm
02:15 PM 63.6°F17.6°C 30.7°F-0.7°C 29% 2.3 mph N3.7 kmh N 4.6 mph7.4 kmh 29.67 in1004.7 mb - 0.00 in0.0 mm 0.00 in0.0 mm
02:00 PM 63.1°F17.3°C 29.5°F-1.4°C 28% 5.8 mph NNE9.3 kmh NNE 12.7 mph20.4 kmh 29.67 in1004.7 mb - 0.00 in0.0 mm 0.00 in0.0 mm
01:45 PM 63.8°F17.7°C 31.8°F-0.1°C 30% 1.2 mph NNE1.9 kmh NNE 5.8 mph9.3 kmh 29.68 in1005.1 mb - 0.00 in0.0 mm 0.00 in0.0 mm
01:30 PM 64.7°F18.2°C 28.0°F-2.2°C 25% 11.5 mph N18.5 kmh N 12.7 mph20.4 kmh 29.68 in1005.1 mb - 0.00 in0.0 mm 0.00 in0.0 mm
01:15 PM 63.9°F17.7°C 31.0°F-0.6°C 29% 4.6 mph NW7.4 kmh NW 6.9 mph11.1 kmh 29.68 in1005.1 mb - 0.00 in0.0 mm 0.00 in0.0 mm
01:00 PM 63.2°F17.3°C 29.5°F-1.4°C 28% 1.2 mph N1.9 kmh N 1.2 mph1.9 kmh 29.69 in1005.4 mb - 0.00 in0.0 mm 0.00 in0.0 mm
12:45 PM 63.4°F17.4°C 32.2°F0.1°C 31% 4.6 mph ESE7.4 kmh ESE 5.8 mph9.3 kmh 29.69 in1005.4 mb - 0.00 in0.0 mm 0.00 in0.0 mm
12:30 PM 61.9°F16.6°C 30.1°F-1.1°C 30% 6.9 mph NE11.1 kmh NE 10.4 mph16.7 kmh 29.70 in1005.8 mb - 0.00 in0.0 mm 0.00 in0.0 mm
12:15 PM 60.9°F16.1°C 30.0°F-1.1°C 31% 3.5 mph WNW5.6 kmh WNW 6.9 mph11.1 kmh 29.70 in1005.8 mb - 0.00 in0.0 mm 0.00 in0.0 mm
12:00 PM 60.3°F15.7°C 30.3°F-0.9°C 32% 4.6 mph NNW7.4 kmh NNW 12.7 mph20.4 kmh 29.70 in1005.8 mb - 0.00 in0.0 mm 0.00 in0.0 mm
11:45 AM 59.7°F15.4°C 29.8°F-1.2°C 32% 5.8 mph NE9.3 kmh NE 6.9 mph11.1 kmh 29.70 in1005.8 mb - 0.00 in0.0 mm 0.00 in0.0 mm
11:30 AM 59.0°F15.0°C 29.1°F-1.6°C 32% 8.1 mph ENE13.0 kmh ENE 12.7 mph20.4 kmh 29.70 in1005.8 mb - 0.00 in0.0 mm 0.00 in0.0 mm
11:15 AM 58.5°F14.7°C 30.2°F-1.0°C 34% 5.8 mph N9.3 kmh N 12.7 mph20.4 kmh 29.70 in1005.8 mb - 0.00 in0.0 mm 0.00 in0.0 mm
11:00 AM 57.9°F14.4°C 30.4°F-0.9°C 35% 3.5 mph NE5.6 kmh NE 3.5 mph5.6 kmh 29.70 in1005.8 mb - 0.00 in0.0 mm 0.00 in0.0 mm
10:45 AM 57.3°F14.1°C 29.8°F-1.2°C 35% 9.2 mph NNE14.8 kmh NNE 16.1 mph25.9 kmh 29.70 in1005.8 mb - 0.00 in0.0 mm 0.00 in0.0 mm
10:30 AM 56.2°F13.4°C 31.6°F-0.2°C 39% 1.2 mph ENE1.9 kmh ENE 3.5 mph5.6 kmh 29.70 in1005.8 mb - 0.00 in0.0 mm 0.00 in0.0 mm
10:15 AM 55.3°F12.9°C 31.4°F-0.3°C 40% 6.9 mph NE11.1 kmh NE 8.1 mph13.0 kmh 29.70 in1005.8 mb - 0.00 in0.0 mm 0.00 in0.0 mm
10:00 AM 54.0°F12.2°C 32.0°F0.0°C 43% 4.6 mph ENE7.4 kmh ENE 6.9 mph11.1 kmh 29.70 in1005.8 mb - 0.00 in0.0 mm 0.00 in0.0 mm
09:45 AM 53.1°F11.7°C 31.2°F-0.4°C 43% 5.8 mph NE9.3 kmh NE 6.9 mph11.1 kmh 29.69 in1005.4 mb - 0.00 in0.0 mm 0.00 in0.0 mm
09:30 AM 52.1°F11.2°C 31.9°F-0.1°C 46% 5.8 mph NE9.3 kmh NE 6.9 mph11.1 kmh 29.70 in1005.8 mb - 0.00 in0.0 mm 0.00 in0.0 mm
09:15 AM 50.7°F10.4°C 31.7°F-0.2°C 48% 5.8 mph N9.3 kmh N 10.4 mph16.7 kmh 29.69 in1005.4 mb - 0.00 in0.0 mm 0.00 in0.0 mm
09:00 AM 49.6°F9.8°C 32.6°F0.3°C 52% 3.5 mph NE5.6 kmh NE 6.9 mph11.1 kmh 29.68 in1005.1 mb - 0.00 in0.0 mm 0.00 in0.0 mm
08:45 AM 48.1°F8.9°C 33.6°F0.9°C 57% 6.9 mph NE11.1 kmh NE 11.5 mph18.5 kmh 29.68 in1005.1 mb - 0.00 in0.0 mm 0.00 in0.0 mm
08:30 AM 46.9°F8.3°C 33.3°F0.7°C 59% 4.6 mph NNE7.4 kmh NNE 6.9 mph11.1 kmh 29.68 in1005.1 mb - 0.00 in0.0 mm 0.00 in0.0 mm
08:15 AM 46.0°F7.8°C 34.5°F1.4°C 64% 3.5 mph NNE5.6 kmh NNE 6.9 mph11.1 kmh 29.68 in1005.1 mb - 0.00 in0.0 mm 0.00 in0.0 mm
08:00 AM 44.9°F7.2°C 34.6°F1.4°C 67% Calm Calm 2.3 mph3.7 kmh 29.68 in1005.1 mb - 0.00 in0.0 mm 0.00 in0.0 mm
07:45 AM 44.0°F6.7°C 34.5°F1.4°C 69% 5.8 mph N9.3 kmh N 5.8 mph9.3 kmh 29.68 in1005.1 mb - 0.00 in0.0 mm 0.00 in0.0 mm
07:30 AM 42.9°F6.1°C 36.5°F2.5°C 78% 1.2 mph N1.9 kmh N 3.5 mph5.6 kmh 29.68 in1005.1 mb - 0.00 in0.0 mm 0.00 in0.0 mm
07:15 AM 42.3°F5.7°C 36.6°F2.6°C 80% Calm Calm 1.2 mph1.9 kmh 29.68 in1005.1 mb - 0.00 in0.0 mm 0.00 in0.0 mm
07:00 AM 42.0°F5.6°C 37.5°F3.1°C 84% Calm Calm -- 29.68 in1005.1 mb - 0.00 in0.0 mm 0.00 in0.0 mm
06:45 AM 41.7°F5.4°C 38.1°F3.4°C 87% Calm Calm -- 29.68 in1005.1 mb - 0.00 in0.0 mm 0.00 in0.0 mm
06:30 AM 41.6°F5.3°C 37.7°F3.2°C 86% Calm Calm -- 29.67 in1004.7 mb - 0.00 in0.0 mm 0.00 in0.0 mm
06:15 AM 41.6°F5.3°C 38.0°F3.3°C 87% Calm Calm -- 29.67 in1004.7 mb - 0.00 in0.0 mm 0.00 in0.0 mm
06:00 AM 41.6°F5.3°C 38.0°F3.3°C 87% Calm Calm -- 29.67 in1004.7 mb - 0.00 in0.0 mm 0.00 in0.0 mm
05:45 AM 41.5°F5.3°C 37.9°F3.3°C 87% Calm Calm -- 29.66 in1004.4 mb - 0.00 in0.0 mm 0.00 in0.0 mm
05:30 AM 41.4°F5.2°C 37.8°F3.2°C 87% Calm Calm -- 29.66 in1004.4 mb - 0.00 in0.0 mm 0.00 in0.0 mm
05:15 AM 41.3°F5.2°C 38.0°F3.3°C 88% 1.2 mph N1.9 kmh N 2.3 mph3.7 kmh 29.66 in1004.4 mb - 0.00 in0.0 mm 0.00 in0.0 mm
05:00 AM 41.4°F5.2°C 38.1°F3.4°C 88% Calm Calm -- 29.68 in1005.1 mb - 0.00 in0.0 mm 0.00 in0.0 mm
04:45 AM 41.4°F5.2°C 38.2°F3.4°C 88% Calm Calm -- 29.67 in1004.7 mb - 0.00 in0.0 mm 0.00 in0.0 mm
04:30 AM 41.5°F5.3°C 38.2°F3.4°C 88% Calm Calm -- 29.68 in1005.1 mb - 0.00 in0.0 mm 0.00 in0.0 mm
04:15 AM 41.6°F5.3°C 38.3°F3.5°C 88% Calm Calm -- 29.68 in1005.1 mb - 0.00 in0.0 mm 0.00 in0.0 mm
04:00 AM 41.6°F5.3°C 38.6°F3.7°C 89% Calm Calm -- 29.68 in1005.1 mb - 0.00 in0.0 mm 0.00 in0.0 mm
03:45 AM 41.6°F5.3°C 38.6°F3.7°C 89% Calm Calm -- 29.68 in1005.1 mb - 0.00 in0.0 mm 0.00 in0.0 mm
03:30 AM 41.7°F5.4°C 38.7°F3.7°C 89% Calm Calm -- 29.69 in1005.4 mb - 0.00 in0.0 mm 0.00 in0.0 mm
03:15 AM 41.8°F5.4°C 38.8°F3.8°C 89% Calm Calm -- 29.68 in1005.1 mb - 0.00 in0.0 mm 0.00 in0.0 mm
03:00 AM 42.0°F5.6°C 39.0°F3.9°C 89% Calm Calm 1.2 mph1.9 kmh 29.68 in1005.1 mb - 0.00 in0.0 mm 0.00 in0.0 mm
02:45 AM 41.9°F5.5°C 38.9°F3.8°C 89% Calm Calm -- 29.67 in1004.7 mb - 0.00 in0.0 mm 0.00 in0.0 mm
02:30 AM 41.8°F5.4°C 38.8°F3.8°C 89% Calm Calm -- 29.67 in1004.7 mb - 0.00 in0.0 mm 0.00 in0.0 mm
02:15 AM 41.9°F5.5°C 38.9°F3.8°C 89% Calm Calm -- 29.68 in1005.1 mb - 0.00 in0.0 mm 0.00 in0.0 mm
02:00 AM 42.0°F5.6°C 39.0°F3.9°C 89% Calm Calm -- 29.69 in1005.4 mb - 0.00 in0.0 mm 0.00 in0.0 mm
01:45 AM 42.0°F5.6°C 38.7°F3.7°C 88% Calm Calm -- 29.69 in1005.4 mb - 0.00 in0.0 mm 0.00 in0.0 mm
01:30 AM 42.1°F5.6°C 38.8°F3.8°C 88% Calm Calm -- 29.70 in1005.8 mb - 0.00 in0.0 mm 0.00 in0.0 mm
01:15 AM 42.1°F5.6°C 38.8°F3.8°C 88% Calm Calm -- 29.70 in1005.8 mb - 0.00 in0.0 mm 0.00 in0.0 mm
01:00 AM 42.1°F5.6°C 38.8°F3.8°C 88% Calm Calm -- 29.71 in1006.1 mb - 0.00 in0.0 mm 0.00 in0.0 mm
12:45 AM 42.0°F5.6°C 38.7°F3.7°C 88% Calm Calm -- 29.70 in1005.8 mb - 0.00 in0.0 mm 0.00 in0.0 mm
12:30 AM 42.0°F5.6°C 38.7°F3.7°C 88% Calm Calm -- 29.70 in1005.8 mb - 0.00 in0.0 mm 0.00 in0.0 mm
12:15 AM 42.0°F5.6°C 38.7°F3.7°C 88% Calm Calm -- 29.69 in1005.4 mb - 0.00 in0.0 mm 0.00 in0.0 mm
12:01 AM 42.0°F5.6°C 38.7°F3.7°C 88% Calm Calm -- 29.70 in1005.8 mb - 0.00 in0.0 mm 0.00 in0.0 mm